Observations for BREST GUIPAVAS, France (LFRB)

LFRB 200730Z AUTO 18005KT 0650 0600 R25/1300D R07/0800N FG VV/// 09/09 Q1034 BECMG 1500 BR  
LFRB 200700Z AUTO 17004KT 1100 1000 R25/1800U R07/1600U -DZ BR VV/// 09/09 Q1033 BECMG 1500 BR  
LFRB 200630Z AUTO 18004KT 4400 2100 BR VV/// 09/08 Q1033
LFRB 200600Z AUTO 21004KT 2400 1200 R25/1500U R07/P2000 BR VV/// 09/09 Q1033
LFRB 200530Z AUTO 22005KT 4000 BR VV/// 09/09 Q1032 
LFRB 200500Z AUTO 22006KT 9999 OVC002 09/09 Q1032   
LFRB 200430Z AUTO 21005KT 4200 BR VV/// 09/08 Q1032 
LFRB 200400Z AUTO 20005KT 2300 BR VV/// 09/08 Q1032 
LFRB 200330Z AUTO 20005KT 3000 -DZ BR OVC003 08/08 Q1032
LFRB 200300Z AUTO 20003KT 2600 -RADZ BR OVC002 08/08 Q1033  
LFRB 200230Z AUTO 19004KT 2500 -RADZ BR OVC004 08/07 Q1032  
LFRB 200200Z AUTO 17004KT 5000 BR BKN005 OVC009 08/07 Q1032 
LFRB 200130Z AUTO 18006KT 9000 OVC012 07/07 Q1032   
LFRB 200100Z AUTO 18006KT 9999 FEW013 OVC030 07/07 Q1033
LFRB 200030Z AUTO 18004KT 9999 BKN017 BKN023 OVC033 07/07 Q1033 
LFRB 200000Z AUTO 19003KT 9999 BKN021 OVC031 06/06 Q1033
LFRB 192330Z AUTO 20005KT 9999 OVC023 05/04 Q1033   
LFRB 192300Z AUTO 19004KT 9999 BKN025 05/04 Q1033   
LFRB 192230Z AUTO 19003KT 7000 FEW029 06/05 Q1033   
LFRB 192200Z AUTO 19003KT 9999 BKN033 06/05 Q1033   
LFRB 192130Z AUTO 23002KT 9999 BKN036 BKN042 06/04 Q1033
LFRB 192100Z AUTO 22001KT CAVOK 06/05 Q1033 
LFRB 192030Z AUTO VRB02KT CAVOK 06/04 Q1032 
LFRB 192000Z AUTO 26002KT 9999 FEW022 07/05 Q1032   
LFRB 191930Z AUTO VRB02KT 9999 FEW022 08/05 Q1032   
LFRB 191900Z AUTO 31002KT 9999 SCT026 08/05 Q1031   
LFRB 191830Z AUTO 33003KT CAVOK 10/06 Q1031 
LFRB 191800Z AUTO VRB03KT CAVOK 11/06 Q1030 
LFRB 191730Z AUTO 32003KT 9999 FEW033 11/06 Q1030   
LFRB 191700Z AUTO 31007KT 280V340 9999 BKN031 12/06 Q1030   
LFRB 191630Z AUTO 32004KT 270V360 9999 FEW031 BKN039 10/06 Q1030
LFRB 191600Z AUTO 30007KT 270V330 9999 OVC039 11/07 Q1030   
LFRB 191530Z AUTO 32008KT 290V350 9999 OVC038 11/06 Q1030   
LFRB 191500Z AUTO 33009KT 9999 FEW022 OVC037 11/06 Q1030
LFRB 191430Z AUTO 32008KT 280V350 9999 BKN023 OVC035 11/06 Q1030
LFRB 191400Z AUTO 31008KT 280V350 9999 SCT021 SCT027 OVC034 11/07 Q1030 
LFRB 191330Z AUTO 32008KT 290V350 9999 BKN023 OVC031 11/07 Q1030
LFRB 191300Z AUTO 32006KT 9999 BKN023 OVC037 12/07 Q1030
LFRB 191230Z AUTO 32006KT 280V350 9999 FEW017 SCT022 OVC035 11/07 Q1030 
LFRB 191200Z AUTO 31006KT 280V340 9999 FEW019 BKN026 OVC035 11/07 Q1030 
LFRB 191130Z AUTO 33004KT 270V040 9999 FEW018 SCT026 OVC033 11/07 Q1030 
LFRB 191100Z AUTO 31006KT 9999 BKN014 BKN020 BKN031 11/08 Q1030 
LFRB 191030Z AUTO VRB02KT 9999 BKN008 BKN013 OVC029 10/09 Q1030 
LFRB 191000Z AUTO VRB02KT 9999 BKN005 BKN011 OVC029 10/09 Q1030 
LFRB 190930Z AUTO VRB01KT 9999 BKN005 BKN010 BKN018 09/08 Q1029 
LFRB 190900Z AUTO VRB02KT 4100 -DZ BR SCT008 BKN017 BKN025 09/08 Q1029  
LFRB 190830Z AUTO 24004KT 9999 FEW012 BKN021 BKN030 09/08 Q1029 
LFRB 190800Z AUTO 00000KT 9999 SCT024 BKN070 OVC100 08/08 Q1029 
LFRB 190730Z AUTO 24002KT 9999 BKN024 BKN030 OVC100 08/07 Q1029 
LFRB 190700Z AUTO VRB01KT 9000 FEW019 BKN033 OVC098 07/07 Q1028